• Join FlightAware (Why Join?)
  • Login
  • US Flag 
01:59PM EST


 

Airport Tracker/Info


-or-


 

Live Flight TrackerFlight Track Log ✈ RPA3496 ✈ 07-May-2014 ✈ KBOS - KPHL

Flight Track Log - Related Links

Times and Time Zones

All times are in EDT time to prevent confusion due to time zone crossing. See the RPA3496 flight status page for this flight to view local times or setup timezone preferences in your user account.

Time Position Orientation Groundspeed Altitude Reporting Facility
EDT Latitude Longitude Course Direction KTS MPH feet Rate Location/Type
12:23PM 42.3500 -71.0167 160° South 133 153 900  Level KA90
12:25PM 42.3050 -71.0967 233° Southwest 213 245 3,700 2,520 Climbing Boston Center
12:26PM 42.2367 -71.0997 182° South 274 315 7,200 3,300 Climbing Boston Center
12:27PM 42.1572 -71.0419 152° Southeast 297 342 10,600 2,700 Climbing Boston Center
12:28PM 42.0767 -70.9689 146° Southeast 345 397 12,900 2,400 Climbing Boston Center
12:29PM 42.1530 -70.6098 160° South  Level FlightAware Approximate
12:29PM 41.9908 -70.8889 145° Southeast 368 423 15,600  Level Boston Center
12:30PM 41.9031 -70.8067 145° Southeast 394 453 17,800 2,100 Climbing Boston Center
12:31PM 41.7944 -70.7856 172° South 412 474 20,000 2,280 Climbing Boston Center
12:32PM 41.6981 -70.8519 207° Southwest 396 456 22,600 2,400 Climbing Boston Center
12:33PM 41.6075 -70.9197 209° Southwest 381 438 24,900 2,160 Climbing Boston Center
12:34PM 41.5097 -71.0244 219° Southwest 378 435 27,100 1,440 Climbing Boston Center
12:35PM 41.4456 -71.1300 231° Southwest 371 427 28,000 420 Climbing Boston Center
12:36PM 41.3881 -71.2247 231° Southwest 369 425 28,000  Level Boston Center
12:37PM 41.3178 -71.3356 230° Southwest 389 448 28,000  Level Boston Center
12:38PM 41.2397 -71.4617 231° Southwest 399 459 28,000  Level Boston Center
12:39PM 41.1647 -71.5869 232° Southwest 398 458 28,000  Level Boston Center
12:40PM 41.1225 -71.7150 246° West 380 437 28,000  Level Boston Center
12:41PM 41.0797 -71.8417 246° West 378 435 28,000  Level Boston Center
12:42PM 41.0372 -71.9669 246° West 374 430 28,000  Level Boston Center
12:43PM 40.9778 -72.0708 233° Southwest 388 447 28,000  Level Boston Center
12:44PM 40.8853 -72.1989 226° Southwest 397 457 28,000  Level Boston Center
12:45PM 40.8092 -72.3058 227° Southwest 398 458 28,000  Level Boston Center
12:46PM 40.7322 -72.4106 226° Southwest 402 463 28,000  Level Boston Center
12:47PM 40.6553 -72.5186 227° Southwest 402 463 28,000 -420 Level Boston Center
12:48PM 40.5789 -72.6231 226° Southwest 400 460 27,200 -1,440 Descending Boston Center
12:49PM 40.5031 -72.7289 227° Southwest 400 460 25,100 -2,100 Descending Boston Center
12:50PM 40.4286 -72.8294 226° Southwest 390 449 23,000 -1,980 Descending Boston Center
12:51PM 40.3583 -72.9261 226° Southwest 371 427 21,100 -1,500 Descending Boston Center
12:52PM 40.2753 -73.0386 226° Southwest 360 414 20,000 -600 Descending Boston Center
12:53PM 40.2044 -73.1322 225° Southwest 360 414 20,000  Level Boston Center
12:54PM 40.1394 -73.2225 227° Southwest 359 413 20,000  Level Boston Center
12:55PM 40.0700 -73.3161 226° Southwest 359 413 20,000  Level Boston Center
12:56PM 40.0014 -73.4075 226° Southwest 356 410 20,000  Level Boston Center
12:57PM 39.9311 -73.5044 227° Southwest 356 410 20,000  Level Boston Center
12:58PM 39.8642 -73.5994 227° Southwest 355 409 20,000  Level Boston Center
01:00PM 39.8050 -73.6967 232° Southwest 349 402 20,000 -60 Level Boston Center
01:01PM 39.7425 -73.7944 230° Southwest 349 402 19,900 -1,080 Descending Boston Center
01:02PM 39.6692 -73.9086 230° Southwest 347 399 17,900 -1,620 Descending Boston Center
01:02PM 39.6214 -73.9831 230° Southwest 334 384 16,800 -1,020 Descending Washington Center
01:03PM 39.5642 -74.0733 231° Southwest 334 384 16,000 -420 Descending Washington Center
01:04PM 39.5111 -74.1578 231° Southwest 329 379 16,000 -480 Level Washington Center
01:05PM 39.4558 -74.2450 231° Southwest 329 379 15,100 -1,320 Descending Washington Center
01:06PM 39.4006 -74.3347 231° Southwest 329 379 13,400 -1,620 Descending Washington Center
01:07PM 39.3661 -74.4319 245° Southwest 323 372 11,900 -1,380 Descending Washington Center
01:10PM 39.3833 -74.6333 276° West 264 304 9,000 -900 Descending Philadelphia TRACON
01:11PM 39.4167 -74.7333 293° West 267 307 9,000  Level Philadelphia TRACON
01:12PM 39.4667 -74.8000 314° West 262 302 9,000  Level Philadelphia TRACON
01:13PM 39.5000 -74.8833 297° West 257 296 9,000 -420 Level Philadelphia TRACON
01:14PM 39.5333 -74.9667 297° West 260 299 8,200 -1,200 Descending Philadelphia TRACON
01:15PM 39.5500 -75.0500 285° West 252 290 6,600 -1,140 Descending Philadelphia TRACON
01:16PM 39.5833 -75.1333 297° West 250 288 6,000 -300 Descending Philadelphia TRACON
01:17PM 39.6167 -75.2333 293° West 255 293 6,000  Level Philadelphia TRACON
01:18PM 39.6333 -75.3167 285° West 252 290 6,000 -60 Level Philadelphia TRACON
01:19PM 39.6667 -75.3833 303° West 186 214 5,900 -780 Descending Philadelphia TRACON
01:20PM 39.7167 -75.4167 333° Northwest 203 234 4,500 -1,560 Descending Philadelphia TRACON
01:21PM 39.7667 -75.4167 360° North 208 239 3,000 -1,260 Descending Philadelphia TRACON
01:22PM 39.8167 -75.4000 14° North 190 219 2,000 -900 Descending Philadelphia TRACON
01:23PM 39.8500 -75.3500 49° Northeast 167 192 1,300 -780 Descending Philadelphia TRACON
01:24PM 39.8500 -75.3167 90° East 129 148 600 -780 Descending Philadelphia TRACON
01:26PM 39.8667 -75.2333 North  Level FlightAware Approximate
01:33PM 39.8722 -75.2409 North  Level Estimated